Terminal Aerodrome Forecast
Issued by NWS

Home | Current Version | Previous Version | Text Only | Print | Product List | Glossary On
Versions: 1 2 3 4 5 6 7 8 9 10 11 12 13 14 15 16 17 18 19 20 21 22 23 24 25 26 27
110
FTUS46 KSEW 210906 AAA
TAFSEA
TAF AMD
KSEA 210906Z 2109/2212 36005KT P6SM FEW050
     FM211200 VRB03KT P6SM SCT013
      TEMPO 2113/2117 BKN013
     FM211800 22004KT P6SM SCT020
     FM212100 25004KT P6SM SCT030 BKN120
     FM220600 20003KT P6SM OVC100=

USA.gov is the U.S. government's official web portal to all federal, state and local government web resources and services.